sensor_id;sensor_type;location;lat;lon;timestamp;temperature;humidity
7934;DHT22;4012;48.896;9.192;2022-10-28T00:00:50;15.10;99.90
7934;DHT22;4012;48.896;9.192;2022-10-28T00:03:16;15.00;99.90
7934;DHT22;4012;48.896;9.192;2022-10-28T00:05:42;14.90;99.90
7934;DHT22;4012;48.896;9.192;2022-10-28T00:08:08;14.90;99.90
7934;DHT22;4012;48.896;9.192;2022-10-28T00:10:33;14.90;99.90
7934;DHT22;4012;48.896;9.192;2022-10-28T00:12:59;14.90;99.90
7934;DHT22;4012;48.896;9.192;2022-10-28T00:15:24;14.90;99.90
7934;DHT22;4012;48.896;9.192;2022-10-28T00:17:50;14.90;99.90
7934;DHT22;4012;48.896;9.192;2022-10-28T00:20:16;14.90;99.90
7934;DHT22;4012;48.896;9.192;2022-10-28T00:22:42;14.90;99.90
7934;DHT22;4012;48.896;9.192;2022-10-28T00:25:08;14.90;99.90
7934;DHT22;4012;48.896;9.192;2022-10-28T00:27:33;14.90;99.90
7934;DHT22;4012;48.896;9.192;2022-10-28T00:29:59;15.00;99.90
7934;DHT22;4012;48.896;9.192;2022-10-28T00:32:28;15.00;99.90
7934;DHT22;4012;48.896;9.192;2022-10-28T00:34:53;14.90;99.90
7934;DHT22;4012;48.896;9.192;2022-10-28T00:37:19;15.00;99.90
7934;DHT22;4012;48.896;9.192;2022-10-28T00:39:45;14.90;99.90
7934;DHT22;4012;48.896;9.192;2022-10-28T00:42:11;14.80;99.90
7934;DHT22;4012;48.896;9.192;2022-10-28T00:44:59;14.80;99.90
7934;DHT22;4012;48.896;9.192;2022-10-28T00:50:44;14.70;99.90
7934;DHT22;4012;48.896;9.192;2022-10-28T00:53:18;14.70;99.90
7934;DHT22;4012;48.896;9.192;2022-10-28T00:55:45;14.80;99.90
7934;DHT22;4012;48.896;9.192;2022-10-28T00:58:13;14.90;99.90
7934;DHT22;4012;48.896;9.192;2022-10-28T01:00:39;14.90;99.90
7934;DHT22;4012;48.896;9.192;2022-10-28T01:03:04;14.90;99.90
7934;DHT22;4012;48.896;9.192;2022-10-28T01:05:32;15.00;99.90
7934;DHT22;4012;48.896;9.192;2022-10-28T01:08:02;15.00;99.90
7934;DHT22;4012;48.896;9.192;2022-10-28T01:13:32;15.00;99.90
7934;DHT22;4012;48.896;9.192;2022-10-28T01:18:57;15.10;99.90
7934;DHT22;4012;48.896;9.192;2022-10-28T01:21:50;15.10;99.90
7934;DHT22;4012;48.896;9.192;2022-10-28T01:35:23;14.70;99.90
7934;DHT22;4012;48.896;9.192;2022-10-28T01:43:31;14.30;99.90
7934;DHT22;4012;48.896;9.192;2022-10-28T01:48:47;14.20;99.90
7934;DHT22;4012;48.896;9.192;2022-10-28T01:51:31;14.10;99.90
7934;DHT22;4012;48.896;9.192;2022-10-28T01:54:01;14.10;99.90
7934;DHT22;4012;48.896;9.192;2022-10-28T01:56:31;14.10;99.90
7934;DHT22;4012;48.896;9.192;2022-10-28T01:58:59;14.00;99.90
7934;DHT22;4012;48.896;9.192;2022-10-28T02:01:27;14.00;99.90
7934;DHT22;4012;48.896;9.192;2022-10-28T02:03:54;14.00;99.90
7934;DHT22;4012;48.896;9.192;2022-10-28T02:06:24;14.00;99.90
7934;DHT22;4012;48.896;9.192;2022-10-28T02:11:35;13.90;99.90
7934;DHT22;4012;48.896;9.192;2022-10-28T02:14:32;13.80;99.90
7934;DHT22;4012;48.896;9.192;2022-10-28T02:19:53;13.80;99.90
7934;DHT22;4012;48.896;9.192;2022-10-28T02:22:31;13.80;99.90
7934;DHT22;4012;48.896;9.192;2022-10-28T02:25:22;13.80;99.90
7934;DHT22;4012;48.896;9.192;2022-10-28T02:28:06;13.90;99.90
7934;DHT22;4012;48.896;9.192;2022-10-28T02:30:44;13.90;99.90
7934;DHT22;4012;48.896;9.192;2022-10-28T02:33:15;13.90;99.90
7934;DHT22;4012;48.896;9.192;2022-10-28T02:38:16;13.90;99.90
7934;DHT22;4012;48.896;9.192;2022-10-28T02:40:46;13.90;99.90
7934;DHT22;4012;48.896;9.192;2022-10-28T02:43:16;14.00;99.90
7934;DHT22;4012;48.896;9.192;2022-10-28T02:45:46;13.90;99.90
7934;DHT22;4012;48.896;9.192;2022-10-28T02:51:21;14.00;99.90
7934;DHT22;4012;48.896;9.192;2022-10-28T02:54:05;14.00;99.90
7934;DHT22;4012;48.896;9.192;2022-10-28T02:56:37;14.00;99.90
7934;DHT22;4012;48.896;9.192;2022-10-28T02:59:08;14.10;99.90
7934;DHT22;4012;48.896;9.192;2022-10-28T03:01:35;14.20;99.90
7934;DHT22;4012;48.896;9.192;2022-10-28T03:04:01;14.10;99.90
7934;DHT22;4012;48.896;9.192;2022-10-28T03:06:27;14.20;99.90
7934;DHT22;4012;48.896;9.192;2022-10-28T03:08:53;14.30;99.90
7934;DHT22;4012;48.896;9.192;2022-10-28T03:11:18;14.30;99.90
7934;DHT22;4012;48.896;9.192;2022-10-28T03:13:44;14.30;99.90
7934;DHT22;4012;48.896;9.192;2022-10-28T03:16:10;14.30;99.90
7934;DHT22;4012;48.896;9.192;2022-10-28T03:18:35;14.30;99.90
7934;DHT22;4012;48.896;9.192;2022-10-28T03:21:01;14.40;99.90
7934;DHT22;4012;48.896;9.192;2022-10-28T03:23:27;14.40;99.90
7934;DHT22;4012;48.896;9.192;2022-10-28T03:25:52;14.40;99.90
7934;DHT22;4012;48.896;9.192;2022-10-28T03:28:18;14.30;99.90
7934;DHT22;4012;48.896;9.192;2022-10-28T03:30:44;14.30;99.90
7934;DHT22;4012;48.896;9.192;2022-10-28T03:33:09;14.30;99.90
7934;DHT22;4012;48.896;9.192;2022-10-28T03:35:35;14.30;99.90
7934;DHT22;4012;48.896;9.192;2022-10-28T03:38:01;14.30;99.90
7934;DHT22;4012;48.896;9.192;2022-10-28T03:40:26;14.30;99.90
7934;DHT22;4012;48.896;9.192;2022-10-28T03:42:52;14.20;99.90
7934;DHT22;4012;48.896;9.192;2022-10-28T03:45:18;14.30;99.90
7934;DHT22;4012;48.896;9.192;2022-10-28T03:47:43;14.20;99.90
7934;DHT22;4012;48.896;9.192;2022-10-28T03:50:09;14.20;99.90
7934;DHT22;4012;48.896;9.192;2022-10-28T03:52:34;14.20;99.90
7934;DHT22;4012;48.896;9.192;2022-10-28T03:55:00;14.30;99.90
7934;DHT22;4012;48.896;9.192;2022-10-28T03:57:29;14.30;99.90
7934;DHT22;4012;48.896;9.192;2022-10-28T03:59:55;14.50;99.90
7934;DHT22;4012;48.896;9.192;2022-10-28T04:02:21;14.60;99.90
7934;DHT22;4012;48.896;9.192;2022-10-28T04:04:47;14.50;99.90
7934;DHT22;4012;48.896;9.192;2022-10-28T04:07:12;14.70;99.90
7934;DHT22;4012;48.896;9.192;2022-10-28T04:09:38;14.70;99.90
7934;DHT22;4012;48.896;9.192;2022-10-28T04:12:05;14.80;99.90
7934;DHT22;4012;48.896;9.192;2022-10-28T04:14:30;14.90;99.90
7934;DHT22;4012;48.896;9.192;2022-10-28T04:16:56;14.90;99.90
7934;DHT22;4012;48.896;9.192;2022-10-28T04:19:22;15.00;99.90
7934;DHT22;4012;48.896;9.192;2022-10-28T04:21:47;15.10;99.90
7934;DHT22;4012;48.896;9.192;2022-10-28T04:24:13;15.20;99.90
7934;DHT22;4012;48.896;9.192;2022-10-28T04:26:38;15.30;99.90
7934;DHT22;4012;48.896;9.192;2022-10-28T04:29:04;15.30;99.90
7934;DHT22;4012;48.896;9.192;2022-10-28T04:31:29;15.40;99.90
7934;DHT22;4012;48.896;9.192;2022-10-28T04:33:55;15.40;99.90
7934;DHT22;4012;48.896;9.192;2022-10-28T04:36:20;15.40;99.90
7934;DHT22;4012;48.896;9.192;2022-10-28T04:38:46;15.40;99.90
7934;DHT22;4012;48.896;9.192;2022-10-28T04:41:13;15.40;99.90
7934;DHT22;4012;48.896;9.192;2022-10-28T04:43:39;15.30;99.90
7934;DHT22;4012;48.896;9.192;2022-10-28T04:46:04;15.30;99.90
7934;DHT22;4012;48.896;9.192;2022-10-28T04:48:33;15.30;99.90
7934;DHT22;4012;48.896;9.192;2022-10-28T04:50:59;15.10;99.90
7934;DHT22;4012;48.896;9.192;2022-10-28T04:53:25;15.10;99.90
7934;DHT22;4012;48.896;9.192;2022-10-28T04:55:50;15.00;99.90
7934;DHT22;4012;48.896;9.192;2022-10-28T04:58:16;15.00;99.90
7934;DHT22;4012;48.896;9.192;2022-10-28T05:00:41;15.00;99.90
7934;DHT22;4012;48.896;9.192;2022-10-28T05:03:07;15.10;99.90
7934;DHT22;4012;48.896;9.192;2022-10-28T05:05:33;15.10;99.90
7934;DHT22;4012;48.896;9.192;2022-10-28T05:07:58;15.10;99.90
7934;DHT22;4012;48.896;9.192;2022-10-28T05:10:24;15.00;99.90
7934;DHT22;4012;48.896;9.192;2022-10-28T05:12:50;15.10;99.90
7934;DHT22;4012;48.896;9.192;2022-10-28T05:15:15;15.10;99.90
7934;DHT22;4012;48.896;9.192;2022-10-28T05:17:45;15.10;99.90
7934;DHT22;4012;48.896;9.192;2022-10-28T05:20:13;15.20;99.90
7934;DHT22;4012;48.896;9.192;2022-10-28T05:22:47;15.20;99.90
7934;DHT22;4012;48.896;9.192;2022-10-28T05:25:13;15.30;99.90
7934;DHT22;4012;48.896;9.192;2022-10-28T05:27:39;15.30;99.90
7934;DHT22;4012;48.896;9.192;2022-10-28T05:30:05;15.20;99.90
7934;DHT22;4012;48.896;9.192;2022-10-28T05:32:31;15.10;99.90
7934;DHT22;4012;48.896;9.192;2022-10-28T05:34:57;15.10;99.90
7934;DHT22;4012;48.896;9.192;2022-10-28T05:37:22;15.00;99.90
7934;DHT22;4012;48.896;9.192;2022-10-28T05:39:48;15.00;99.90
7934;DHT22;4012;48.896;9.192;2022-10-28T05:42:13;14.80;99.90
7934;DHT22;4012;48.896;9.192;2022-10-28T05:44:39;14.80;99.90
7934;DHT22;4012;48.896;9.192;2022-10-28T05:47:04;14.70;99.90
7934;DHT22;4012;48.896;9.192;2022-10-28T05:49:30;14.70;99.90
7934;DHT22;4012;48.896;9.192;2022-10-28T05:51:55;14.60;99.90
7934;DHT22;4012;48.896;9.192;2022-10-28T05:54:21;14.50;99.90
7934;DHT22;4012;48.896;9.192;2022-10-28T05:56:47;14.40;99.90
7934;DHT22;4012;48.896;9.192;2022-10-28T05:59:12;14.50;99.90
7934;DHT22;4012;48.896;9.192;2022-10-28T06:01:38;14.50;99.90
7934;DHT22;4012;48.896;9.192;2022-10-28T06:04:04;14.50;99.90
7934;DHT22;4012;48.896;9.192;2022-10-28T06:06:30;14.60;99.90
7934;DHT22;4012;48.896;9.192;2022-10-28T06:08:56;14.60;99.90
7934;DHT22;4012;48.896;9.192;2022-10-28T06:11:25;14.70;99.90
7934;DHT22;4012;48.896;9.192;2022-10-28T06:13:50;14.70;99.90
7934;DHT22;4012;48.896;9.192;2022-10-28T06:16:16;14.70;99.90
7934;DHT22;4012;48.896;9.192;2022-10-28T06:18:41;14.70;99.90
7934;DHT22;4012;48.896;9.192;2022-10-28T06:21:07;14.70;99.90
7934;DHT22;4012;48.896;9.192;2022-10-28T06:23:32;14.80;99.90
7934;DHT22;4012;48.896;9.192;2022-10-28T06:25:59;14.80;99.90
7934;DHT22;4012;48.896;9.192;2022-10-28T06:28:26;14.80;99.90
7934;DHT22;4012;48.896;9.192;2022-10-28T06:30:52;14.90;99.90
7934;DHT22;4012;48.896;9.192;2022-10-28T06:33:18;15.00;99.90
7934;DHT22;4012;48.896;9.192;2022-10-28T06:35:44;15.00;99.90
7934;DHT22;4012;48.896;9.192;2022-10-28T06:38:09;15.00;99.90
7934;DHT22;4012;48.896;9.192;2022-10-28T06:40:35;15.10;99.90
7934;DHT22;4012;48.896;9.192;2022-10-28T06:43:03;15.10;99.90
7934;DHT22;4012;48.896;9.192;2022-10-28T06:45:31;15.20;99.90
7934;DHT22;4012;48.896;9.192;2022-10-28T06:47:58;15.20;99.90
7934;DHT22;4012;48.896;9.192;2022-10-28T06:50:24;15.20;99.90
7934;DHT22;4012;48.896;9.192;2022-10-28T06:52:50;15.30;99.90
7934;DHT22;4012;48.896;9.192;2022-10-28T06:55:16;15.20;99.90
7934;DHT22;4012;48.896;9.192;2022-10-28T06:57:42;15.20;99.90
7934;DHT22;4012;48.896;9.192;2022-10-28T07:00:08;15.20;99.90
7934;DHT22;4012;48.896;9.192;2022-10-28T07:02:33;15.30;99.90
7934;DHT22;4012;48.896;9.192;2022-10-28T07:04:59;15.30;99.90
7934;DHT22;4012;48.896;9.192;2022-10-28T07:07:24;15.40;99.90
7934;DHT22;4012;48.896;9.192;2022-10-28T07:09:50;15.50;99.90
7934;DHT22;4012;48.896;9.192;2022-10-28T07:12:16;15.60;99.90
7934;DHT22;4012;48.896;9.192;2022-10-28T07:14:41;15.50;99.90
7934;DHT22;4012;48.896;9.192;2022-10-28T07:17:10;15.50;99.90
7934;DHT22;4012;48.896;9.192;2022-10-28T07:19:35;15.50;99.90
7934;DHT22;4012;48.896;9.192;2022-10-28T07:22:01;15.40;99.90
7934;DHT22;4012;48.896;9.192;2022-10-28T07:24:27;15.40;99.90
7934;DHT22;4012;48.896;9.192;2022-10-28T07:26:52;15.30;99.90
7934;DHT22;4012;48.896;9.192;2022-10-28T07:29:18;15.30;99.90
7934;DHT22;4012;48.896;9.192;2022-10-28T07:31:43;15.50;99.90
7934;DHT22;4012;48.896;9.192;2022-10-28T07:34:09;15.90;99.90
7934;DHT22;4012;48.896;9.192;2022-10-28T07:36:34;16.00;99.90
7934;DHT22;4012;48.896;9.192;2022-10-28T07:39:00;16.20;99.90
7934;DHT22;4012;48.896;9.192;2022-10-28T07:41:26;16.40;99.90
7934;DHT22;4012;48.896;9.192;2022-10-28T07:43:52;16.60;99.90
7934;DHT22;4012;48.896;9.192;2022-10-28T07:46:18;16.70;99.90
7934;DHT22;4012;48.896;9.192;2022-10-28T07:48:44;16.80;99.90
7934;DHT22;4012;48.896;9.192;2022-10-28T07:51:12;16.80;99.90
7934;DHT22;4012;48.896;9.192;2022-10-28T07:53:38;16.60;99.90
7934;DHT22;4012;48.896;9.192;2022-10-28T07:56:06;16.70;99.90
7934;DHT22;4012;48.896;9.192;2022-10-28T07:58:34;16.80;99.90
7934;DHT22;4012;48.896;9.192;2022-10-28T08:01:04;16.90;99.90
7934;DHT22;4012;48.896;9.192;2022-10-28T08:03:31;17.00;99.90
7934;DHT22;4012;48.896;9.192;2022-10-28T08:06:06;17.10;99.90
7934;DHT22;4012;48.896;9.192;2022-10-28T08:08:32;17.20;99.90
7934;DHT22;4012;48.896;9.192;2022-10-28T08:10:57;17.20;99.90
7934;DHT22;4012;48.896;9.192;2022-10-28T08:13:23;17.20;99.90
7934;DHT22;4012;48.896;9.192;2022-10-28T08:15:55;17.10;99.90
7934;DHT22;4012;48.896;9.192;2022-10-28T08:18:21;17.00;99.90
7934;DHT22;4012;48.896;9.192;2022-10-28T08:20:47;17.00;99.90
7934;DHT22;4012;48.896;9.192;2022-10-28T08:23:13;17.10;99.90
7934;DHT22;4012;48.896;9.192;2022-10-28T08:25:47;17.20;99.90
7934;DHT22;4012;48.896;9.192;2022-10-28T08:28:13;17.10;99.90
7934;DHT22;4012;48.896;9.192;2022-10-28T08:30:38;17.10;99.90
7934;DHT22;4012;48.896;9.192;2022-10-28T08:33:04;17.20;99.90
7934;DHT22;4012;48.896;9.192;2022-10-28T08:35:29;17.40;99.90
7934;DHT22;4012;48.896;9.192;2022-10-28T08:37:55;17.70;99.90
7934;DHT22;4012;48.896;9.192;2022-10-28T08:40:27;17.80;99.90
7934;DHT22;4012;48.896;9.192;2022-10-28T08:43:03;17.80;99.90
7934;DHT22;4012;48.896;9.192;2022-10-28T08:45:57;17.80;99.90
7934;DHT22;4012;48.896;9.192;2022-10-28T08:48:35;17.80;99.90
7934;DHT22;4012;48.896;9.192;2022-10-28T08:51:22;17.70;99.90
7934;DHT22;4012;48.896;9.192;2022-10-28T08:53:55;17.80;99.90
7934;DHT22;4012;48.896;9.192;2022-10-28T08:56:42;18.00;99.90
7934;DHT22;4012;48.896;9.192;2022-10-28T08:59:16;18.30;99.90
7934;DHT22;4012;48.896;9.192;2022-10-28T09:04:36;17.80;99.90
7934;DHT22;4012;48.896;9.192;2022-10-28T09:07:04;17.90;99.90
7934;DHT22;4012;48.896;9.192;2022-10-28T09:09:30;18.30;99.90
7934;DHT22;4012;48.896;9.192;2022-10-28T09:12:15;18.70;99.90
7934;DHT22;4012;48.896;9.192;2022-10-28T09:14:50;19.10;99.90
7934;DHT22;4012;48.896;9.192;2022-10-28T09:19:57;19.70;99.90
7934;DHT22;4012;48.896;9.192;2022-10-28T09:22:42;19.90;99.90
7934;DHT22;4012;48.896;9.192;2022-10-28T09:25:26;20.00;99.90
7934;DHT22;4012;48.896;9.192;2022-10-28T09:33:41;19.80;99.90
7934;DHT22;4012;48.896;9.192;2022-10-28T09:36:14;19.40;99.90
7934;DHT22;4012;48.896;9.192;2022-10-28T09:38:42;19.20;99.90
7934;DHT22;4012;48.896;9.192;2022-10-28T09:41:21;18.90;99.90
7934;DHT22;4012;48.896;9.192;2022-10-28T09:43:54;18.90;99.90
7934;DHT22;4012;48.896;9.192;2022-10-28T09:46:23;19.00;99.90
7934;DHT22;4012;48.896;9.192;2022-10-28T09:48:56;18.90;99.90
7934;DHT22;4012;48.896;9.192;2022-10-28T09:53:56;19.90;99.90
7934;DHT22;4012;48.896;9.192;2022-10-28T09:56:24;20.70;99.90
7934;DHT22;4012;48.896;9.192;2022-10-28T09:58:51;21.70;99.90
7934;DHT22;4012;48.896;9.192;2022-10-28T10:01:18;22.80;99.90
7934;DHT22;4012;48.896;9.192;2022-10-28T10:03:46;22.70;99.90
7934;DHT22;4012;48.896;9.192;2022-10-28T10:06:21;23.10;99.90
7934;DHT22;4012;48.896;9.192;2022-10-28T10:08:48;22.90;99.90
7934;DHT22;4012;48.896;9.192;2022-10-28T10:11:51;23.30;99.90
7934;DHT22;4012;48.896;9.192;2022-10-28T10:14:23;24.50;99.90
7934;DHT22;4012;48.896;9.192;2022-10-28T10:17:01;24.70;99.90
7934;DHT22;4012;48.896;9.192;2022-10-28T10:20:02;24.10;99.90
7934;DHT22;4012;48.896;9.192;2022-10-28T10:24:55;23.20;99.90
7934;DHT22;4012;48.896;9.192;2022-10-28T10:27:21;23.10;99.90
7934;DHT22;4012;48.896;9.192;2022-10-28T10:29:49;22.90;99.90
7934;DHT22;4012;48.896;9.192;2022-10-28T10:32:18;22.70;99.90
7934;DHT22;4012;48.896;9.192;2022-10-28T10:37:33;22.10;99.90
7934;DHT22;4012;48.896;9.192;2022-10-28T10:42:31;21.10;99.90
7934;DHT22;4012;48.896;9.192;2022-10-28T10:45:01;20.90;99.90
7934;DHT22;4012;48.896;9.192;2022-10-28T10:47:27;20.70;99.90
7934;DHT22;4012;48.896;9.192;2022-10-28T10:52:52;20.90;99.90
7934;DHT22;4012;48.896;9.192;2022-10-28T10:55:40;20.90;99.90
7934;DHT22;4012;48.896;9.192;2022-10-28T10:58:17;21.00;99.90
7934;DHT22;4012;48.896;9.192;2022-10-28T11:00:46;21.00;99.90
7934;DHT22;4012;48.896;9.192;2022-10-28T11:03:29;21.30;99.90
7934;DHT22;4012;48.896;9.192;2022-10-28T11:05:57;21.20;99.90
7934;DHT22;4012;48.896;9.192;2022-10-28T11:08:33;21.00;99.90
7934;DHT22;4012;48.896;9.192;2022-10-28T11:11:20;21.10;99.90
7934;DHT22;4012;48.896;9.192;2022-10-28T11:13:47;21.20;99.90
7934;DHT22;4012;48.896;9.192;2022-10-28T11:16:19;21.30;99.90
7934;DHT22;4012;48.896;9.192;2022-10-28T11:18:48;21.10;99.90
7934;DHT22;4012;48.896;9.192;2022-10-28T11:21:45;21.00;99.90
7934;DHT22;4012;48.896;9.192;2022-10-28T11:27:37;21.00;99.90
7934;DHT22;4012;48.896;9.192;2022-10-28T11:30:11;21.10;99.90
7934;DHT22;4012;48.896;9.192;2022-10-28T11:32:54;21.20;99.90
7934;DHT22;4012;48.896;9.192;2022-10-28T11:35:35;21.20;99.90
7934;DHT22;4012;48.896;9.192;2022-10-28T11:38:20;21.20;99.90
7934;DHT22;4012;48.896;9.192;2022-10-28T11:41:06;21.30;99.90
7934;DHT22;4012;48.896;9.192;2022-10-28T11:44:02;21.30;99.90
7934;DHT22;4012;48.896;9.192;2022-10-28T11:49:31;21.20;99.90
7934;DHT22;4012;48.896;9.192;2022-10-28T12:02:51;21.20;99.90
7934;DHT22;4012;48.896;9.192;2022-10-28T12:16:33;21.90;99.90
7934;DHT22;4012;48.896;9.192;2022-10-28T12:19:11;22.00;99.90
7934;DHT22;4012;48.896;9.192;2022-10-28T12:21:55;22.00;99.90
7934;DHT22;4012;48.896;9.192;2022-10-28T12:24:22;22.30;99.90
7934;DHT22;4012;48.896;9.192;2022-10-28T12:27:14;22.80;99.90
7934;DHT22;4012;48.896;9.192;2022-10-28T12:29:44;23.10;99.90
7934;DHT22;4012;48.896;9.192;2022-10-28T12:32:17;23.20;99.90
7934;DHT22;4012;48.896;9.192;2022-10-28T12:34:49;23.20;99.90
7934;DHT22;4012;48.896;9.192;2022-10-28T12:37:37;23.30;99.90
7934;DHT22;4012;48.896;9.192;2022-10-28T12:40:16;23.30;99.90
7934;DHT22;4012;48.896;9.192;2022-10-28T12:43:31;23.60;99.90
7934;DHT22;4012;48.896;9.192;2022-10-28T12:45:37;23.80;99.90
7934;DHT22;4012;48.896;9.192;2022-10-28T12:48:15;24.00;99.90
7934;DHT22;4012;48.896;9.192;2022-10-28T12:50:59;24.30;99.90
7934;DHT22;4012;48.896;9.192;2022-10-28T12:56:00;24.50;99.90
7934;DHT22;4012;48.896;9.192;2022-10-28T12:58:31;24.40;99.90
7934;DHT22;4012;48.896;9.192;2022-10-28T13:01:13;24.20;99.90
7934;DHT22;4012;48.896;9.192;2022-10-28T13:03:40;24.40;99.90
7934;DHT22;4012;48.896;9.192;2022-10-28T13:06:43;24.30;99.90
7934;DHT22;4012;48.896;9.192;2022-10-28T13:09:21;24.00;99.90
7934;DHT22;4012;48.896;9.192;2022-10-28T13:11:58;23.90;99.90
7934;DHT22;4012;48.896;9.192;2022-10-28T13:25:52;23.50;99.90
7934;DHT22;4012;48.896;9.192;2022-10-28T13:28:20;23.40;99.90
7934;DHT22;4012;48.896;9.192;2022-10-28T13:31:05;23.50;99.90
7934;DHT22;4012;48.896;9.192;2022-10-28T13:33:33;23.50;99.90
7934;DHT22;4012;48.896;9.192;2022-10-28T13:36:30;23.40;99.90
7934;DHT22;4012;48.896;9.192;2022-10-28T13:38:59;23.40;99.90
7934;DHT22;4012;48.896;9.192;2022-10-28T13:41:32;23.30;99.90
7934;DHT22;4012;48.896;9.192;2022-10-28T13:49:27;23.10;99.90
7934;DHT22;4012;48.896;9.192;2022-10-28T13:52:22;23.00;99.90
7934;DHT22;4012;48.896;9.192;2022-10-28T13:57:34;23.10;99.90
7934;DHT22;4012;48.896;9.192;2022-10-28T14:00:06;23.20;99.90
7934;DHT22;4012;48.896;9.192;2022-10-28T14:02:52;23.10;99.90
7934;DHT22;4012;48.896;9.192;2022-10-28T14:05:26;23.10;99.90
7934;DHT22;4012;48.896;9.192;2022-10-28T14:08:32;23.00;99.90
7934;DHT22;4012;48.896;9.192;2022-10-28T14:13:33;23.20;99.90
7934;DHT22;4012;48.896;9.192;2022-10-28T14:24:36;23.20;99.90
7934;DHT22;4012;48.896;9.192;2022-10-28T14:27:19;23.20;99.90
7934;DHT22;4012;48.896;9.192;2022-10-28T14:29:48;23.20;99.90
7934;DHT22;4012;48.896;9.192;2022-10-28T14:43:31;22.80;99.90
7934;DHT22;4012;48.896;9.192;2022-10-28T14:48:53;22.60;99.90
7934;DHT22;4012;48.896;9.192;2022-10-28T14:51:25;22.70;99.90
7934;DHT22;4012;48.896;9.192;2022-10-28T14:53:55;22.80;99.90
7934;DHT22;4012;48.896;9.192;2022-10-28T14:56:27;22.80;99.90
7934;DHT22;4012;48.896;9.192;2022-10-28T14:58:57;22.80;99.90
7934;DHT22;4012;48.896;9.192;2022-10-28T15:02:08;22.80;99.90
7934;DHT22;4012;48.896;9.192;2022-10-28T15:04:20;22.80;99.90
7934;DHT22;4012;48.896;9.192;2022-10-28T15:06:48;22.70;99.90
7934;DHT22;4012;48.896;9.192;2022-10-28T15:09:18;22.70;99.90
7934;DHT22;4012;48.896;9.192;2022-10-28T15:12:08;22.60;99.90
7934;DHT22;4012;48.896;9.192;2022-10-28T15:17:19;22.50;99.90
7934;DHT22;4012;48.896;9.192;2022-10-28T15:19:46;22.50;99.90
7934;DHT22;4012;48.896;9.192;2022-10-28T15:25:05;22.40;99.90
7934;DHT22;4012;48.896;9.192;2022-10-28T15:27:36;22.40;99.90
7934;DHT22;4012;48.896;9.192;2022-10-28T15:30:06;22.20;99.90
7934;DHT22;4012;48.896;9.192;2022-10-28T15:32:37;22.20;99.90
7934;DHT22;4012;48.896;9.192;2022-10-28T15:38:01;21.90;99.90
7934;DHT22;4012;48.896;9.192;2022-10-28T15:43:04;21.60;99.90
7934;DHT22;4012;48.896;9.192;2022-10-28T15:45:32;21.60;99.90
7934;DHT22;4012;48.896;9.192;2022-10-28T15:48:00;21.40;99.90
7934;DHT22;4012;48.896;9.192;2022-10-28T15:50:29;21.50;99.90
7934;DHT22;4012;48.896;9.192;2022-10-28T15:55:37;21.40;99.90
7934;DHT22;4012;48.896;9.192;2022-10-28T16:00:54;21.30;99.90
7934;DHT22;4012;48.896;9.192;2022-10-28T16:03:25;21.20;99.90
7934;DHT22;4012;48.896;9.192;2022-10-28T16:05:55;21.20;99.90
7934;DHT22;4012;48.896;9.192;2022-10-28T16:08:26;21.20;99.90
7934;DHT22;4012;48.896;9.192;2022-10-28T16:10:55;21.20;99.90
7934;DHT22;4012;48.896;9.192;2022-10-28T16:13:23;21.10;99.90
7934;DHT22;4012;48.896;9.192;2022-10-28T16:16:00;21.00;99.90
7934;DHT22;4012;48.896;9.192;2022-10-28T16:18:28;21.00;99.90
7934;DHT22;4012;48.896;9.192;2022-10-28T16:20:55;21.00;99.90
7934;DHT22;4012;48.896;9.192;2022-10-28T16:23:23;20.90;99.90
7934;DHT22;4012;48.896;9.192;2022-10-28T16:25:51;20.90;99.90
7934;DHT22;4012;48.896;9.192;2022-10-28T16:28:23;20.90;99.90
7934;DHT22;4012;48.896;9.192;2022-10-28T16:30:54;20.80;99.90
7934;DHT22;4012;48.896;9.192;2022-10-28T16:33:34;20.70;99.90
7934;DHT22;4012;48.896;9.192;2022-10-28T16:36:00;20.70;99.90
7934;DHT22;4012;48.896;9.192;2022-10-28T16:38:29;20.70;99.90
7934;DHT22;4012;48.896;9.192;2022-10-28T16:40:56;20.70;99.90
7934;DHT22;4012;48.896;9.192;2022-10-28T16:43:24;20.70;99.90
7934;DHT22;4012;48.896;9.192;2022-10-28T16:45:52;20.60;99.90
7934;DHT22;4012;48.896;9.192;2022-10-28T16:48:19;20.60;99.90
7934;DHT22;4012;48.896;9.192;2022-10-28T16:50:54;20.40;99.90
7934;DHT22;4012;48.896;9.192;2022-10-28T16:53:21;20.30;99.90
7934;DHT22;4012;48.896;9.192;2022-10-28T16:55:47;20.20;99.90
7934;DHT22;4012;48.896;9.192;2022-10-28T16:58:13;20.20;99.90
7934;DHT22;4012;48.896;9.192;2022-10-28T17:00:39;20.10;99.90
7934;DHT22;4012;48.896;9.192;2022-10-28T17:03:06;20.00;99.90
7934;DHT22;4012;48.896;9.192;2022-10-28T17:05:31;20.00;99.90
7934;DHT22;4012;48.896;9.192;2022-10-28T17:07:57;19.90;99.90
7934;DHT22;4012;48.896;9.192;2022-10-28T17:10:25;19.90;99.90
7934;DHT22;4012;48.896;9.192;2022-10-28T17:12:51;19.90;99.90
7934;DHT22;4012;48.896;9.192;2022-10-28T17:15:17;19.80;99.90
7934;DHT22;4012;48.896;9.192;2022-10-28T17:17:42;19.80;99.90
7934;DHT22;4012;48.896;9.192;2022-10-28T17:20:09;19.80;99.90
7934;DHT22;4012;48.896;9.192;2022-10-28T17:22:34;19.90;99.90
7934;DHT22;4012;48.896;9.192;2022-10-28T17:25:00;19.90;99.90
7934;DHT22;4012;48.896;9.192;2022-10-28T17:27:26;19.80;99.90
7934;DHT22;4012;48.896;9.192;2022-10-28T17:29:51;19.80;99.90
7934;DHT22;4012;48.896;9.192;2022-10-28T17:32:17;19.80;99.90
7934;DHT22;4012;48.896;9.192;2022-10-28T17:34:43;19.80;99.90
7934;DHT22;4012;48.896;9.192;2022-10-28T17:37:08;19.80;99.90
7934;DHT22;4012;48.896;9.192;2022-10-28T17:39:34;19.70;99.90
7934;DHT22;4012;48.896;9.192;2022-10-28T17:42:00;19.70;99.90
7934;DHT22;4012;48.896;9.192;2022-10-28T17:44:26;19.60;99.90
7934;DHT22;4012;48.896;9.192;2022-10-28T17:46:52;19.50;99.90
7934;DHT22;4012;48.896;9.192;2022-10-28T17:49:17;19.50;99.90
7934;DHT22;4012;48.896;9.192;2022-10-28T17:51:43;19.50;99.90
7934;DHT22;4012;48.896;9.192;2022-10-28T17:54:09;19.40;99.90
7934;DHT22;4012;48.896;9.192;2022-10-28T17:56:35;19.40;99.90
7934;DHT22;4012;48.896;9.192;2022-10-28T17:59:01;19.30;99.90
7934;DHT22;4012;48.896;9.192;2022-10-28T18:01:29;19.20;99.90
7934;DHT22;4012;48.896;9.192;2022-10-28T18:03:55;19.20;99.90
7934;DHT22;4012;48.896;9.192;2022-10-28T18:06:21;19.10;99.90
7934;DHT22;4012;48.896;9.192;2022-10-28T18:08:46;19.10;99.90
7934;DHT22;4012;48.896;9.192;2022-10-28T18:11:14;19.20;99.90
7934;DHT22;4012;48.896;9.192;2022-10-28T18:13:42;19.20;99.90
7934;DHT22;4012;48.896;9.192;2022-10-28T18:16:16;19.20;99.90
7934;DHT22;4012;48.896;9.192;2022-10-28T18:18:41;19.10;99.90
7934;DHT22;4012;48.896;9.192;2022-10-28T18:21:07;19.20;99.90
7934;DHT22;4012;48.896;9.192;2022-10-28T18:23:33;19.10;99.90
7934;DHT22;4012;48.896;9.192;2022-10-28T18:26:11;19.10;99.90
7934;DHT22;4012;48.896;9.192;2022-10-28T18:28:37;19.00;99.90
7934;DHT22;4012;48.896;9.192;2022-10-28T18:31:15;19.00;99.90
7934;DHT22;4012;48.896;9.192;2022-10-28T18:33:41;18.90;99.90
7934;DHT22;4012;48.896;9.192;2022-10-28T18:36:16;18.90;99.90
7934;DHT22;4012;48.896;9.192;2022-10-28T18:38:42;18.90;99.90
7934;DHT22;4012;48.896;9.192;2022-10-28T18:41:12;18.90;99.90
7934;DHT22;4012;48.896;9.192;2022-10-28T18:43:39;18.80;99.90
7934;DHT22;4012;48.896;9.192;2022-10-28T18:46:05;18.90;99.90
7934;DHT22;4012;48.896;9.192;2022-10-28T18:48:31;18.80;99.90
7934;DHT22;4012;48.896;9.192;2022-10-28T18:50:59;18.80;99.90
7934;DHT22;4012;48.896;9.192;2022-10-28T18:53:26;18.80;99.90
7934;DHT22;4012;48.896;9.192;2022-10-28T18:55:57;18.80;99.90